Time;durP1;ratioP1;P1;durP2;ratioP2;P2;SDS_P1;SDS_P2;PMS_P1;PMS_P2;Temp;Humidity;BMP_temperature;BMP_pressure;BME280_temperature;BME280_humidity;BME280_pressure;Samples;Min_cycle;Max_cycle;Signal;HPM_P1;HPM_P2
2023/09/26 00:00:23;;;;;;;8.38;4.65;;;;;;;19.15;100.00;99450.75;4485505;31;20590;-82
2023/09/26 00:02:52;;;;;;;7.62;4.60;;;;;;;19.21;100.00;99454.50;4485803;31;20461;-82
2023/09/26 00:05:20;;;;;;;8.85;4.75;;;;;;;19.17;100.00;99447.91;4485396;31;20366;-83
2023/09/26 00:07:51;;;;;;;12.75;4.78;;;;;;;19.14;100.00;99453.56;4485200;31;20609;-82
2023/09/26 00:10:19;;;;;;;9.20;5.10;;;;;;;19.09;100.00;99450.59;4485314;32;20107;-82
2023/09/26 00:12:51;;;;;;;9.50;5.05;;;;;;;19.12;100.00;99453.75;4485313;31;20089;-82
2023/09/26 00:15:18;;;;;;;8.90;4.97;;;;;;;19.19;100.00;99451.19;4481191;31;20514;-82
2023/09/26 00:17:46;;;;;;;6.72;4.47;;;;;;;19.21;100.00;99454.50;4468204;32;20832;-82
2023/09/26 00:20:17;;;;;;;7.62;5.00;;;;;;;19.23;100.00;99455.16;4469457;32;20092;-82
2023/09/26 00:22:46;;;;;;;9.57;4.90;;;;;;;19.20;100.00;99460.84;4469622;32;20100;-83
2023/09/26 00:25:14;;;;;;;9.50;4.85;;;;;;;19.18;100.00;99449.53;4469522;32;20149;-82
2023/09/26 00:27:42;;;;;;;8.35;4.95;;;;;;;19.15;100.00;99450.75;4469568;32;20146;-83
2023/09/26 00:30:10;;;;;;;12.52;4.78;;;;;;;19.17;100.00;99450.56;4469481;32;20100;-83
2023/09/26 00:32:38;;;;;;;8.02;5.00;;;;;;;19.19;100.00;99451.19;4469486;32;20096;-83
2023/09/26 00:35:12;;;;;;;10.82;4.53;;;;;;;19.22;100.00;99450.03;4469423;32;20139;-82
2023/09/26 00:37:42;;;;;;;8.73;4.43;;;;;;;19.25;100.00;99452.34;4469382;32;20088;-82
2023/09/26 00:40:12;;;;;;;16.67;4.68;;;;;;;19.24;100.00;99448.84;4469464;32;20160;-82
2023/09/26 00:42:40;;;;;;;13.40;5.60;;;;;;;19.21;100.00;99443.06;4469387;32;20931;-82
2023/09/26 00:45:08;;;;;;;9.52;5.22;;;;;;;19.25;100.00;99444.37;4469485;32;20145;-83
2023/09/26 00:47:35;;;;;;;13.77;5.93;;;;;;;19.30;100.00;99442.84;4469563;32;20092;-82
2023/09/26 00:50:04;;;;;;;9.65;5.05;;;;;;;19.42;100.00;99445.06;4469498;32;20088;-83
2023/09/26 00:52:32;;;;;;;10.95;6.07;;;;;;;19.40;100.00;99447.91;4469893;32;20105;-83
2023/09/26 00:54:59;;;;;;;9.98;5.30;;;;;;;19.46;100.00;99443.72;4484953;31;20092;-83
2023/09/26 00:57:35;;;;;;;8.68;5.20;;;;;;;19.51;100.00;99444.00;4485054;31;20092;-82
2023/09/26 01:00:03;;;;;;;8.02;4.93;;;;;;;19.58;100.00;99434.31;4484930;31;20462;-82
2023/09/26 01:02:32;;;;;;;14.07;5.18;;;;;;;19.58;100.00;99436.97;4484958;32;20462;-82
2023/09/26 01:05:00;;;;;;;9.52;5.68;;;;;;;19.55;100.00;99436.50;4484992;31;20103;-82
2023/09/26 01:07:28;;;;;;;10.98;4.47;;;;;;;19.55;100.00;99437.31;4484735;31;20096;-82
2023/09/26 01:09:55;;;;;;;11.77;4.90;;;;;;;19.49;100.00;99438.03;4485005;31;20149;-82
2023/09/26 01:12:23;;;;;;;7.70;5.25;;;;;;;19.48;100.00;99436.37;4483564;32;20123;-82
2023/09/26 01:14:51;;;;;;;7.50;5.20;;;;;;;19.56;100.00;99433.69;4483054;32;20530;-82
2023/09/26 01:17:19;;;;;;;11.20;5.28;;;;;;;19.54;100.00;99434.84;4469041;32;20515;-82
2023/09/26 01:19:47;;;;;;;10.93;4.95;;;;;;;19.53;100.00;99439.34;4468999;32;20169;-82
2023/09/26 01:22:16;;;;;;;9.52;4.70;;;;;;;19.45;100.00;99434.09;4469221;32;20105;-82
2023/09/26 01:24:44;;;;;;;9.07;4.43;;;;;;;19.45;100.00;99439.41;4469150;32;20158;-82
2023/09/26 01:27:12;;;;;;;9.45;5.12;;;;;;;19.47;100.00;99442.69;4468696;32;20119;-82
2023/09/26 01:29:40;;;;;;;7.53;4.85;;;;;;;19.45;100.00;99439.41;4469097;32;20519;-82
2023/09/26 01:32:08;;;;;;;9.52;5.05;;;;;;;19.37;100.00;99436.81;4468936;32;20115;-82
2023/09/26 01:34:36;;;;;;;13.73;5.12;;;;;;;19.35;100.00;99433.50;4468953;32;20096;-82
2023/09/26 01:37:11;;;;;;;9.50;5.35;;;;;;;19.40;100.00;99429.31;4468673;32;20096;-82
2023/09/26 01:39:38;;;;;;;12.25;4.75;;;;;;;19.40;100.00;99433.81;4469104;32;20123;-82
2023/09/26 01:42:07;;;;;;;10.52;5.28;;;;;;;19.32;100.00;99432.03;4468816;32;20089;-82
2023/09/26 01:44:35;;;;;;;12.75;5.70;;;;;;;19.30;100.00;99439.34;4469390;32;20101;-82
2023/09/26 01:47:03;;;;;;;11.02;5.25;;;;;;;19.29;100.00;99440.34;4468749;32;20100;-83
2023/09/26 01:49:31;;;;;;;12.00;5.07;;;;;;;19.30;100.00;99442.84;4468875;32;20143;-82
2023/09/26 01:52:00;;;;;;;10.18;5.40;;;;;;;19.31;100.00;99438.34;4468657;32;20097;-82
2023/09/26 01:54:27;;;;;;;9.73;5.05;;;;;;;19.39;100.00;99440.09;4482154;32;20104;-82
2023/09/26 01:56:54;;;;;;;14.23;5.25;;;;;;;19.30;100.00;99447.31;4484663;32;20088;-82
2023/09/26 01:59:22;;;;;;;9.35;5.12;;;;;;;19.32;100.00;99442.66;4484494;31;20160;-82
2023/09/26 02:01:52;;;;;;;9.60;5.15;;;;;;;19.30;100.00;99442.84;4484706;31;20135;-82
2023/09/26 02:04:20;;;;;;;12.75;5.45;;;;;;;19.27;100.00;99437.87;4484524;31;20092;-82
2023/09/26 02:06:47;;;;;;;11.30;5.32;;;;;;;19.24;100.00;99438.22;4484278;32;20096;-82
2023/09/26 02:09:15;;;;;;;9.63;5.50;;;;;;;19.27;100.00;99432.56;4484416;31;20457;-82
2023/09/26 02:11:42;;;;;;;10.75;5.20;;;;;;;19.29;100.00;99435.03;4484235;31;20096;-82
2023/09/26 02:14:10;;;;;;;13.77;5.50;;;;;;;19.33;100.00;99431.84;4484244;32;20114;-82
2023/09/26 02:16:38;;;;;;;10.82;6.10;;;;;;;19.34;100.00;99437.97;4472222;31;20126;-82
2023/09/26 02:19:08;;;;;;;11.02;5.55;;;;;;;19.35;100.00;99434.34;4468637;32;20119;-82
2023/09/26 02:21:36;;;;;;;9.38;5.90;;;;;;;19.21;100.00;99430.59;4468609;32;20536;-82
2023/09/26 02:24:04;;;;;;;8.88;5.12;;;;;;;19.27;100.00;99440.53;4468505;32;20510;-82
2023/09/26 02:26:32;;;;;;;11.45;6.55;;;;;;;19.23;100.00;99439.22;4468374;32;20567;-82
2023/09/26 02:28:59;;;;;;;10.20;5.78;;;;;;;19.23;100.00;99436.56;4468671;32;20097;-82
2023/09/26 02:31:28;;;;;;;10.23;5.35;;;;;;;19.26;100.00;99436.22;4468390;32;20092;-82
2023/09/26 02:33:56;;;;;;;12.30;5.55;;;;;;;19.26;100.00;99438.06;4468239;32;20531;-82
2023/09/26 02:36:23;;;;;;;11.02;5.82;;;;;;;19.31;100.00;99439.16;4468449;32;20450;-82
2023/09/26 02:38:51;;;;;;;10.15;5.93;;;;;;;19.30;100.00;99442.84;4469133;32;20130;-82
2023/09/26 02:41:19;;;;;;;11.73;6.35;;;;;;;19.35;100.00;99444.97;4470296;32;20097;-82
2023/09/26 02:43:48;;;;;;;8.45;5.45;;;;;;;19.29;100.00;99440.34;4470375;32;20080;-82
2023/09/26 02:46:18;;;;;;;11.90;5.53;;;;;;;19.30;100.00;99442.84;4470329;32;20089;-81
2023/09/26 02:48:45;;;;;;;11.30;5.55;;;;;;;19.28;100.00;99447.47;4470204;32;20131;-82
2023/09/26 02:51:12;;;;;;;13.40;6.07;;;;;;;19.28;100.00;99441.34;4470183;32;20108;-82
2023/09/26 02:53:39;;;;;;;8.95;5.78;;;;;;;19.26;100.00;99451.34;4478109;32;20100;-82
2023/09/26 02:56:10;;;;;;;9.38;5.75;;;;;;;19.16;100.00;99451.56;4485954;31;20156;-82
2023/09/26 02:58:38;;;;;;;12.40;6.37;;;;;;;19.21;100.00;99449.19;4484389;32;20579;-82
2023/09/26 03:01:06;;;;;;;14.07;5.90;;;;;;;19.16;100.00;99440.94;4485955;32;20149;-82
2023/09/26 03:03:33;;;;;;;9.88;6.12;;;;;;;19.27;100.00;99443.19;4485652;31;20096;-82
2023/09/26 03:06:01;;;;;;;15.38;6.10;;;;;;;19.20;100.00;99442.25;4485736;32;20109;-82
2023/09/26 03:08:29;;;;;;;12.52;6.45;;;;;;;19.23;100.00;99441.88;4485698;31;20138;-82
2023/09/26 03:10:58;;;;;;;12.98;6.12;;;;;;;19.20;100.00;99436.94;4485582;31;20093;-82
2023/09/26 03:13:35;;;;;;;12.45;6.35;;;;;;;19.15;100.00;99437.47;4485703;31;20151;-82
2023/09/26 03:16:04;;;;;;;12.65;6.47;;;;;;;19.13;100.00;99435.97;4477429;31;20214;-82
2023/09/26 03:18:31;;;;;;;11.68;6.07;;;;;;;19.15;100.00;99439.25;4469835;32;20097;-83
2023/09/26 03:21:05;;;;;;;10.38;7.28;;;;;;;19.17;100.00;99437.28;4469853;32;20486;-82
2023/09/26 03:23:33;;;;;;;10.82;6.65;;;;;;;19.21;100.00;99437.75;4470094;32;20084;-82
2023/09/26 03:26:00;;;;;;;9.75;5.87;;;;;;;19.14;100.00;99443.75;4470250;32;20084;-82
2023/09/26 03:28:28;;;;;;;12.98;6.35;;;;;;;19.19;100.00;99439.75;4469923;32;20458;-82
2023/09/26 03:30:56;;;;;;;11.65;5.82;;;;;;;19.11;100.00;99443.28;4469779;32;20109;-82
2023/09/26 03:33:26;;;;;;;12.18;6.60;;;;;;;19.04;100.00;99437.03;4470167;32;20084;-82
2023/09/26 03:35:53;;;;;;;13.43;6.45;;;;;;;18.95;100.00;99445.03;4469814;32;20096;-82
2023/09/26 03:38:21;;;;;;;10.52;5.93;;;;;;;18.97;100.00;99445.69;4469781;32;20150;-82
2023/09/26 03:40:56;;;;;;;15.07;6.90;;;;;;;18.95;100.00;99444.22;4469767;32;20118;-82
2023/09/26 03:43:26;;;;;;;12.73;6.35;;;;;;;18.93;100.00;99435.59;4469940;32;20104;-82
2023/09/26 03:46:00;;;;;;;9.70;6.55;;;;;;;18.99;100.00;99442.06;4470106;32;20085;-82
2023/09/26 03:48:28;;;;;;;;;;;;;;;18.92;100.00;99452.53;4470158;32;20097;-82
2023/09/26 03:51:06;;;;;;;11.07;6.22;;;;;;;18.94;100.00;99442.53;4468748;32;20322;-82
2023/09/26 03:53:35;;;;;;;12.05;6.40;;;;;;;18.94;100.00;99443.41;4477483;32;20175;-82
2023/09/26 03:56:02;;;;;;;10.13;6.80;;;;;;;18.95;100.00;99442.38;4485193;31;20587;-82
2023/09/26 03:58:31;;;;;;;11.77;6.57;;;;;;;18.97;100.00;99443.03;4485331;31;20095;-82
2023/09/26 04:01:15;;;;;;;8.63;5.93;;;;;;;19.00;100.00;99441.03;4485357;31;20096;-82
2023/09/26 04:03:48;;;;;;;10.60;6.72;;;;;;;18.94;100.00;99443.41;4483900;32;20126;-82
2023/09/26 04:06:16;;;;;;;8.85;5.57;;;;;;;18.91;100.00;99440.25;4485706;31;20150;-82
2023/09/26 04:08:44;;;;;;;11.82;6.30;;;;;;;18.84;100.00;99439.28;4485198;31;20123;-82
2023/09/26 04:11:17;;;;;;;11.90;6.85;;;;;;;18.83;100.00;99440.25;4485284;31;20114;-82
2023/09/26 04:13:45;;;;;;;;;;;;;;;18.82;100.00;99438.59;4488737;31;20131;-82
2023/09/26 04:16:12;;;;;;;8.82;6.03;;;;;;;18.79;100.00;99448.56;4492908;31;20273;-83
2023/09/26 04:18:39;;;;;;;11.45;6.72;;;;;;;18.82;100.00;99438.59;4499718;31;20119;-83
2023/09/26 04:21:07;;;;;;;12.48;6.53;;;;;;;18.81;100.00;99451.06;4500912;31;20462;-83
2023/09/26 04:23:38;;;;;;;12.50;6.35;;;;;;;18.78;100.00;99444.25;4489949;31;20111;-83
2023/09/26 04:26:13;;;;;;;11.30;6.85;;;;;;;18.80;100.00;99442.28;4485235;31;20148;-82
2023/09/26 04:28:42;;;;;;;14.10;7.00;;;;;;;18.78;100.00;99449.56;4486537;31;20127;-82
2023/09/26 04:31:17;;;;;;;19.85;7.07;;;;;;;18.78;100.00;99443.44;4492923;31;20123;-82
2023/09/26 04:33:47;;;;;;;10.65;6.30;;;;;;;18.76;100.00;99448.09;4495637;31;20097;-82
2023/09/26 04:36:16;;;;;;;10.95;6.37;;;;;;;18.77;100.00;99450.59;4490207;31;20087;-82
2023/09/26 04:38:43;;;;;;;9.52;6.95;;;;;;;18.76;100.00;99446.28;4481078;31;20413;-82
2023/09/26 04:41:13;;;;;;;13.80;6.80;;;;;;;18.81;100.00;99453.72;4489525;31;20088;-82
2023/09/26 04:43:40;;;;;;;11.55;6.43;;;;;;;18.80;100.00;99455.56;4494389;31;20101;-82
2023/09/26 04:46:14;;;;;;;11.93;7.37;;;;;;;18.82;100.00;99455.38;4500796;31;20114;-82
2023/09/26 04:48:43;;;;;;;14.20;6.28;;;;;;;18.87;100.00;99455.69;4500794;31;20584;-82
2023/09/26 04:51:15;;;;;;;14.50;6.90;;;;;;;18.89;100.00;99466.97;4495511;31;20442;-82
2023/09/26 04:53:43;;;;;;;14.15;6.87;;;;;;;18.87;100.00;99468.97;4482545;31;20523;-82
2023/09/26 04:56:11;;;;;;;10.73;6.72;;;;;;;18.79;100.00;99464.50;4469390;32;20156;-82
2023/09/26 04:58:38;;;;;;;14.52;6.93;;;;;;;18.91;100.00;99466.78;4467859;32;20546;-82
2023/09/26 05:01:11;;;;;;;12.75;6.53;;;;;;;18.92;100.00;99461.31;4481961;31;20120;-81
2023/09/26 05:03:44;;;;;;;13.82;6.87;;;;;;;18.93;100.00;99470.94;4481220;31;20118;-82
2023/09/26 05:06:12;;;;;;;13.02;6.20;;;;;;;19.01;100.00;99461.28;4483978;31;20112;-82
2023/09/26 05:08:40;;;;;;;12.50;6.60;;;;;;;18.99;100.00;99471.25;4482628;31;20130;-82
2023/09/26 05:11:13;;;;;;;13.43;6.90;;;;;;;19.13;100.00;99471.31;4484087;31;20101;-82
2023/09/26 05:13:42;;;;;;;10.95;6.03;;;;;;;19.17;100.00;99463.00;4482470;32;20130;-82
2023/09/26 05:16:10;;;;;;;12.93;6.95;;;;;;;19.14;100.00;99464.19;4483496;31;20092;-82
2023/09/26 05:18:40;;;;;;;12.23;6.32;;;;;;;19.21;100.00;99459.81;4489611;31;20104;-85
2023/09/26 05:21:09;;;;;;;10.38;6.30;;;;;;;19.21;100.00;99461.66;4484080;31;20105;-83
2023/09/26 05:23:36;;;;;;;10.88;6.60;;;;;;;19.14;100.00;99459.69;4480910;31;20088;-82
2023/09/26 05:26:11;;;;;;;12.15;6.28;;;;;;;19.22;100.00;99463.31;4477006;31;20111;-83
2023/09/26 05:28:40;;;;;;;12.37;6.32;;;;;;;19.36;100.00;99469.69;4483997;32;20430;-83
2023/09/26 05:31:08;;;;;;;14.93;6.78;;;;;;;19.26;100.00;99472.59;4486725;31;20092;-83
2023/09/26 05:33:36;;;;;;;12.35;6.87;;;;;;;19.32;100.00;99469.22;4479112;31;20165;-82
2023/09/26 05:36:06;;;;;;;11.12;6.35;;;;;;;19.40;100.00;99471.81;4475023;31;187717;-83
2023/09/26 05:38:33;;;;;;;12.55;6.45;;;;;;;19.43;100.00;99473.31;4480376;31;20161;-82
2023/09/26 05:41:00;;;;;;;12.52;6.50;;;;;;;19.46;100.00;99470.28;4484069;31;20157;-84
2023/09/26 05:43:29;;;;;;;16.27;7.82;;;;;;;19.60;100.00;99469.50;4484827;31;20127;-81
2023/09/26 05:45:56;;;;;;;15.15;6.25;;;;;;;19.63;100.00;99473.63;4486763;31;20163;-80
2023/09/26 05:48:23;;;;;;;15.73;6.65;;;;;;;19.60;100.00;99469.50;4482716;31;20136;-81
2023/09/26 05:50:57;;;;;;;11.75;6.22;;;;;;;19.64;100.00;99478.78;4482431;31;20453;-79
2023/09/26 05:53:25;;;;;;;9.82;6.50;;;;;;;19.69;100.00;99473.75;4477920;31;20120;-80
2023/09/26 05:55:52;;;;;;;16.75;6.50;;;;;;;19.80;100.00;99474.34;4481363;31;20882;-80
2023/09/26 05:58:21;;;;;;;10.82;6.10;;;;;;;19.86;100.00;99473.63;4483958;31;20119;-80
2023/09/26 06:00:49;;;;;;;12.60;6.15;;;;;;;19.95;100.00;99475.22;4484156;31;20088;-81
2023/09/26 06:03:16;;;;;;;15.77;6.90;;;;;;;19.90;100.00;99474.13;4479394;31;20434;-81
2023/09/26 06:05:45;;;;;;;14.87;6.60;;;;;;;19.94;100.00;99478.91;4482248;31;20104;-82
2023/09/26 06:08:12;;;;;;;10.07;5.78;;;;;;;19.97;100.00;99481.19;4482987;31;20204;-82
2023/09/26 06:10:40;;;;;;;21.20;6.72;;;;;;;19.92;100.00;99478.22;4476795;32;20100;-81
2023/09/26 06:13:07;;;;;;;10.27;6.72;;;;;;;19.85;100.00;99472.81;4480367;32;20135;-80
2023/09/26 06:15:34;;;;;;;9.02;6.12;;;;;;;20.00;100.00;99480.84;4480633;32;20122;-81
2023/09/26 06:18:02;;;;;;;12.07;5.85;;;;;;;20.01;100.00;99476.31;4483321;31;20100;-78
2023/09/26 06:20:30;;;;;;;10.32;6.20;;;;;;;20.13;100.00;99479.38;4487144;31;20138;-80
2023/09/26 06:22:57;;;;;;;11.52;6.07;;;;;;;20.14;100.00;99478.38;4482598;31;20125;-80
2023/09/26 06:25:25;;;;;;;10.30;6.20;;;;;;;20.14;100.00;99476.53;4481758;31;20129;-81
2023/09/26 06:27:57;;;;;;;9.20;5.70;;;;;;;20.25;100.00;99483.25;4483206;31;20098;-79
2023/09/26 06:30:25;;;;;;;10.98;6.72;;;;;;;20.24;100.00;99468.28;4490335;31;20119;-83
2023/09/26 06:32:54;;;;;;;10.48;6.50;;;;;;;20.26;100.00;99471.59;4472383;31;20169;-82
2023/09/26 06:35:22;;;;;;;14.30;7.30;;;;;;;20.39;100.00;99479.78;4469239;31;20104;-79
2023/09/26 06:37:50;;;;;;;11.95;6.25;;;;;;;20.34;100.00;99479.47;4468450;32;20112;-83
2023/09/26 06:40:17;;;;;;;9.75;5.82;;;;;;;20.45;100.00;99472.06;4470148;32;20093;-78
2023/09/26 06:42:46;;;;;;;10.15;6.37;;;;;;;20.47;100.00;99473.53;4466445;31;20108;-80
2023/09/26 06:45:14;;;;;;;10.82;6.00;;;;;;;20.58;100.00;99482.87;4470608;31;20100;-80
2023/09/26 06:47:41;;;;;;;11.90;5.80;;;;;;;20.60;100.00;99472.06;4471886;31;20601;-78
2023/09/26 06:50:10;;;;;;;14.45;6.00;;;;;;;20.69;100.00;99474.44;4469073;31;20097;-77
2023/09/26 06:52:39;;;;;;;10.85;6.60;;;;;;;20.52;100.00;99473.78;4472841;32;20108;-79
2023/09/26 06:55:10;;;;;;;14.45;6.28;;;;;;;20.41;100.00;99476.94;4469186;32;20898;-78
2023/09/26 06:57:39;;;;;;;12.60;6.37;;;;;;;20.53;100.00;99472.78;4467386;32;20097;-79
2023/09/26 07:00:17;;;;;;;11.98;6.35;;;;;;;20.77;100.00;99476.19;4471455;31;20213;-79
2023/09/26 07:02:45;;;;;;;10.40;6.10;;;;;;;20.78;100.00;99477.84;4470967;32;20223;-81
2023/09/26 07:05:12;;;;;;;10.35;6.12;;;;;;;20.74;100.00;99487.19;4469169;32;20101;-79
2023/09/26 07:07:40;;;;;;;14.10;7.00;;;;;;;20.84;100.00;99484.25;4469017;31;20151;-84
2023/09/26 07:10:17;;;;;;;11.82;6.37;;;;;;;20.90;100.00;99488.84;4466139;32;20442;-80
2023/09/26 07:12:46;;;;;;;13.98;5.75;;;;;;;21.04;100.00;99479.16;4471234;32;21043;-78
2023/09/26 07:15:13;;;;;;;15.50;6.60;;;;;;;21.01;100.00;99490.19;4467385;31;20176;-79
2023/09/26 07:17:40;;;;;;;9.38;6.00;;;;;;;21.10;100.00;99491.72;4470883;32;20145;-80
2023/09/26 07:20:15;;;;;;;11.57;6.75;;;;;;;21.06;100.00;99487.78;4473087;32;20123;-81
2023/09/26 07:22:44;;;;;;;11.48;5.87;;;;;;;21.12;100.00;99480.88;4464831;32;20133;-77
2023/09/26 07:25:14;;;;;;;12.55;6.78;;;;;;;21.09;100.00;99482.09;4467514;32;20555;-80
2023/09/26 07:27:43;;;;;;;12.68;6.32;;;;;;;21.24;100.00;99490.87;4471890;32;20092;-78
2023/09/26 07:30:14;;;;;;;15.32;6.78;;;;;;;21.34;100.00;99493.22;4467664;32;20088;-76
2023/09/26 07:32:43;;;;;;;16.30;6.40;;;;;;;21.34;100.00;99501.22;4470976;32;20480;-77
2023/09/26 07:35:11;;;;;;;10.63;6.50;;;;;;;21.31;100.00;99487.44;4471645;32;20101;-77
2023/09/26 07:37:38;;;;;;;8.75;5.85;;;;;;;21.46;100.00;99501.56;4468910;31;20092;-79
2023/09/26 07:40:09;;;;;;;11.68;6.37;;;;;;;21.61;100.00;99501.53;4468065;31;20085;-78
2023/09/26 07:42:41;;;;;;;10.13;6.25;;;;;;;21.35;100.00;99504.72;4471003;32;20101;-76
2023/09/26 07:45:09;;;;;;;8.70;6.40;;;;;;;21.53;100.00;99512.28;4468162;32;20473;-77
2023/09/26 07:47:37;;;;;;;16.45;6.30;;;;;;;21.37;100.00;99514.16;4473937;32;20154;-82
2023/09/26 07:50:05;;;;;;;9.23;6.30;;;;;;;21.49;100.00;99516.34;4471934;31;20096;-82
2023/09/26 07:52:35;;;;;;;12.13;7.60;;;;;;;21.52;100.00;99519.47;4472334;32;20461;-78
2023/09/26 07:55:05;;;;;;;10.77;6.57;;;;;;;21.72;100.00;99513.50;4470632;31;20096;-79
2023/09/26 07:57:33;;;;;;;15.75;6.43;;;;;;;21.97;100.00;99520.09;4472169;31;20084;-81
2023/09/26 08:00:00;;;;;;;16.23;7.53;;;;;;;21.99;100.00;99511.91;4470125;32;20123;-79
2023/09/26 08:02:34;;;;;;;14.70;6.62;;;;;;;21.87;100.00;99516.13;4474706;32;20096;-79
2023/09/26 08:05:02;;;;;;;14.98;7.15;;;;;;;21.52;100.00;99526.66;4474928;32;20108;-80
2023/09/26 08:07:29;;;;;;;15.05;7.18;;;;;;;21.72;100.00;99516.19;4468099;32;20456;-80
2023/09/26 08:10:00;;;;;;;15.50;6.65;;;;;;;21.86;100.00;99522.44;4472866;32;20153;-81
2023/09/26 08:12:31;;;;;;;11.88;6.05;;;;;;;21.97;100.00;99516.62;4475513;31;20104;-81
2023/09/26 08:15:00;;;;;;;13.88;6.22;;;;;;;22.06;100.00;99517.28;4469982;32;20100;-80
2023/09/26 08:17:28;;;;;;;14.30;6.85;;;;;;;21.92;100.00;99517.19;4468961;31;20547;-85
2023/09/26 08:19:56;;;;;;;13.57;6.70;;;;;;;21.85;100.00;99528.78;4471351;31;20113;-82
2023/09/26 08:22:31;;;;;;;11.00;6.70;;;;;;;21.90;100.00;99521.06;4469628;32;20156;-81
2023/09/26 08:24:59;;;;;;;17.15;7.30;;;;;;;21.81;100.00;99517.69;4471855;31;20092;-82
2023/09/26 08:27:31;;;;;;;21.73;7.03;;;;;;;21.97;100.00;99525.44;4470597;32;20511;-81
2023/09/26 08:29:59;;;;;;;15.35;6.90;;;;;;;22.02;100.00;99521.37;4473780;31;20143;-80
2023/09/26 08:32:26;;;;;;;16.55;7.72;;;;;;;22.09;100.00;99523.06;4476102;32;20148;-80
2023/09/26 08:34:57;;;;;;;13.25;7.37;;;;;;;22.23;100.00;99523.16;4467562;32;20180;-78
2023/09/26 08:37:25;;;;;;;12.18;6.62;;;;;;;22.38;100.00;99526.59;4468832;32;20476;-80
2023/09/26 08:39:52;;;;;;;13.60;6.75;;;;;;;22.50;100.00;99530.34;4471197;31;20620;-81
2023/09/26 08:42:26;;;;;;;11.12;7.07;;;;;;;22.67;100.00;99522.84;4468456;32;20089;-80
2023/09/26 08:44:55;;;;;;;13.85;6.85;;;;;;;22.51;100.00;99520.50;4467628;32;20096;-80
2023/09/26 08:47:24;;;;;;;17.73;7.03;;;;;;;22.67;99.39;99519.34;4474227;32;20104;-80
2023/09/26 08:49:57;;;;;;;17.73;6.97;;;;;;;22.90;98.91;99513.72;4472026;31;20097;-79
2023/09/26 08:52:25;;;;;;;12.37;7.65;;;;;;;23.01;99.00;99520.31;4465627;31;20089;-78
2023/09/26 08:54:53;;;;;;;13.02;7.10;;;;;;;23.02;95.77;99514.78;4472442;31;20102;-78
2023/09/26 08:57:21;;;;;;;14.25;7.25;;;;;;;22.97;94.97;99519.09;4467557;32;20101;-78
2023/09/26 08:59:49;;;;;;;11.35;6.65;;;;;;;22.91;95.13;99517.19;4472900;31;20120;-78
2023/09/26 09:02:17;;;;;;;15.70;8.98;;;;;;;23.13;95.73;99512.59;4467370;32;20157;-77
2023/09/26 09:04:45;;;;;;;15.40;7.18;;;;;;;23.33;94.16;99513.47;4471764;32;20157;-77
2023/09/26 09:07:15;;;;;;;11.00;6.95;;;;;;;23.21;94.81;99515.91;4471041;32;20088;-79
2023/09/26 09:10:03;;;;;;;13.02;7.18;;;;;;;23.49;93.21;99517.62;4467102;32;20150;-80
2023/09/26 09:12:33;;;;;;;11.23;6.72;;;;;;;23.47;91.38;99513.50;4472072;32;20097;-80
2023/09/26 09:15:04;;;;;;;15.93;6.45;;;;;;;23.66;90.78;99510.03;4469839;31;20100;-80
2023/09/26 09:17:40;;;;;;;13.68;6.80;;;;;;;23.78;87.98;99514.78;4469374;32;20088;-79
2023/09/26 09:20:10;;;;;;;10.52;6.72;;;;;;;23.71;88.00;99514.78;4472537;32;20101;-80
2023/09/26 09:22:40;;;;;;;12.43;6.20;;;;;;;23.70;86.46;99513.94;4469954;32;20098;-79
2023/09/26 09:25:09;;;;;;;16.08;6.97;;;;;;;23.88;85.47;99510.69;4468998;32;20142;-81
2023/09/26 09:27:43;;;;;;;15.73;6.12;;;;;;;23.81;84.85;99520.53;4467450;32;20511;-80
2023/09/26 09:30:12;;;;;;;11.50;6.95;;;;;;;23.90;84.94;99508.63;4470288;32;20104;-78
2023/09/26 09:32:41;;;;;;;19.05;6.85;;;;;;;24.07;85.34;99508.22;4472758;31;20084;-79
2023/09/26 09:35:09;;;;;;;12.10;6.35;;;;;;;24.12;82.77;99520.97;4472654;31;20156;-78
2023/09/26 09:37:47;;;;;;;7.28;5.82;;;;;;;24.22;84.49;99518.69;4470761;32;20093;-78
2023/09/26 09:40:22;;;;;;;13.45;6.65;;;;;;;24.32;86.19;99513.75;4472798;32;20134;-79
2023/09/26 09:42:51;;;;;;;13.43;6.32;;;;;;;24.18;83.68;99510.28;4472268;32;20138;-79
2023/09/26 09:45:19;;;;;;;24.15;7.00;;;;;;;24.40;85.13;99499.31;4471514;31;20700;-76
2023/09/26 09:47:48;;;;;;;10.48;5.97;;;;;;;24.65;84.64;99499.50;4471740;32;20116;-78
2023/09/26 09:50:16;;;;;;;14.50;6.15;;;;;;;24.69;80.36;99500.69;4476776;32;20129;-78
2023/09/26 09:52:48;;;;;;;11.48;6.12;;;;;;;24.71;78.30;99506.69;4480050;31;20597;-79
2023/09/26 09:55:22;;;;;;;17.27;6.97;;;;;;;24.77;79.91;99497.78;4475492;32;20501;-78
2023/09/26 09:57:53;;;;;;;13.18;6.03;;;;;;;24.88;79.09;99490.13;4476133;32;20096;-79
2023/09/26 10:00:24;;;;;;;10.75;6.65;;;;;;;24.85;78.60;99491.37;4479635;31;20088;-79
2023/09/26 10:03:00;;;;;;;9.30;5.65;;;;;;;24.88;76.75;99490.13;4478469;32;20100;-78
2023/09/26 10:05:28;;;;;;;;;;;;;;;24.76;76.52;99484.59;4480265;31;20206;-76
2023/09/26 10:07:57;;;;;;;9.77;5.75;;;;;;;24.80;77.16;99483.16;4479148;31;19994;-80
2023/09/26 10:10:26;;;;;;;8.02;5.97;;;;;;;24.86;77.92;99490.34;4478329;31;20141;-78
2023/09/26 10:12:54;;;;;;;11.68;5.78;;;;;;;24.95;76.85;99475.66;4483296;31;20175;-78
2023/09/26 10:16:07;;;;;;;11.65;5.57;;;;;;;25.29;77.34;99478.16;4470866;32;20864;-79
2023/09/26 10:18:39;;;;;;;8.77;5.10;;;;;;;25.46;72.45;99483.84;4484947;31;20153;-79
2023/09/26 10:21:27;;;;;;;13.52;5.85;;;;;;;25.78;71.66;99471.19;4481557;31;20154;-78
2023/09/26 10:24:09;;;;;;;10.77;5.12;;;;;;;25.71;68.50;99465.09;4478354;31;20076;-78
2023/09/26 10:26:39;;;;;;;10.93;4.70;;;;;;;25.73;68.03;99462.19;4482747;31;20149;-78
2023/09/26 10:29:11;;;;;;;16.58;5.68;;;;;;;25.56;64.29;99460.03;4481211;31;20175;-78
2023/09/26 10:31:41;;;;;;;9.73;5.50;;;;;;;25.71;67.60;99461.56;4483083;31;20447;-79
2023/09/26 10:34:09;;;;;;;18.33;5.25;;;;;;;25.84;65.66;99456.09;4479190;32;20505;-78
2023/09/26 10:36:37;;;;;;;11.95;5.53;;;;;;;25.83;65.87;99457.97;4478687;31;20120;-80
2023/09/26 10:39:09;;;;;;;10.65;5.68;;;;;;;25.89;66.01;99458.13;4479855;31;20108;-78
2023/09/26 10:41:39;;;;;;;13.10;4.97;;;;;;;25.68;62.70;99463.66;4479150;32;20446;-78
2023/09/26 10:44:27;;;;;;;7.62;4.62;;;;;;;25.85;63.16;99447.81;4480765;31;20104;-78
2023/09/26 10:46:54;;;;;;;8.98;4.75;;;;;;;25.99;62.43;99451.22;4476880;32;20120;-78
2023/09/26 10:49:26;;;;;;;8.85;5.10;;;;;;;26.02;61.77;99448.09;4474524;31;20113;-80
2023/09/26 10:51:53;;;;;;;8.70;4.90;;;;;;;26.05;63.12;99446.84;4476302;32;20155;-78
2023/09/26 10:54:21;;;;;;;8.48;5.25;;;;;;;26.11;62.60;99442.44;4473063;32;20122;-79
2023/09/26 10:56:48;;;;;;;15.43;4.90;;;;;;;26.02;61.03;99450.78;4473313;32;20104;-81
2023/09/26 10:59:17;;;;;;;10.50;5.55;;;;;;;26.09;62.22;99449.91;4473316;31;20095;-80
2023/09/26 11:01:46;;;;;;;12.93;5.50;;;;;;;26.24;62.74;99441.47;4478677;31;20095;-80
2023/09/26 11:04:14;;;;;;;16.10;5.50;;;;;;;26.51;63.20;99442.00;4481385;32;20122;-80
2023/09/26 11:06:42;;;;;;;7.93;4.60;;;;;;;26.38;59.42;99441.12;4480490;31;20139;-80
2023/09/26 11:09:12;;;;;;;7.18;5.20;;;;;;;26.27;59.27;99441.88;4484523;31;20176;-81
2023/09/26 11:11:40;;;;;;;9.77;5.32;;;;;;;26.22;59.25;99439.00;4491760;31;20114;-79
2023/09/26 11:14:11;;;;;;;21.10;6.57;;;;;;;26.46;63.31;99437.31;4474111;32;20153;-78
2023/09/26 11:16:41;;;;;;;12.32;4.65;;;;;;;26.34;63.28;99431.88;4475072;31;20123;-79
2023/09/26 11:19:09;;;;;;;7.18;4.68;;;;;;;26.48;59.20;99431.69;4478277;31;20751;-78
2023/09/26 11:21:38;;;;;;;14.13;4.78;;;;;;;26.55;58.84;99427.06;4480590;31;20139;-78
2023/09/26 11:24:22;;;;;;;12.30;4.93;;;;;;;26.53;58.71;99424.63;4481574;31;20143;-79
2023/09/26 11:26:51;;;;;;;11.63;5.00;;;;;;;26.56;57.26;99420.66;4474091;32;20144;-78
2023/09/26 11:29:19;;;;;;;11.70;4.62;;;;;;;26.53;56.82;99423.81;4478614;32;20089;-79
2023/09/26 11:31:47;;;;;;;10.15;5.00;;;;;;;26.62;56.67;99422.44;4478725;31;20111;-79